Main page
METAR-TAF:

METAR-TAF

Airports :

Udine, Italy

Rivolto Air Base

latitude: 45-59N, longitude: 013-02E, elevation: 51 m

Current weather observation

The report was made 37 minutes ago, at 06:55 UTC
Temperature 8°C
Humidity 76%
Pressure 1018 hPa
Visibility 10 km or more
no clouds below 1500 m and no cumulonimbus

METAR: LIPI 240655Z /////KT CAVOK 08/04 Q1018 RMK SKC VIS MIN 9999 WIND THR06 29003KT WIND THR24 32002KT BLU

Time: 09:32 (07:32 UTC)

Forecast

The report was made 2 hours and 32 minutes ago, at 05:00 UTC
Forecast valid from 24 at 06 UTC to 24 at 15 UTC
Wind 5 kt from variable directions
Visibility 10 km or more
no clouds below 1500 m and no cumulonimbus

TAF: LIPI 240500Z 2406/2415 VRB05KT CAVOK

Weather observations and forecasts of more than 4000 airports (METAR and TAF reports).

The available stations are represented by yellow and red dots on the map.

Hover mouse over dot to see the name of the station.

Then click to see weather observations and forecasts.

To change the map : click on the green buttons with a black cross to zoom in, on the green button with a dash to zoom out, or on the green arrows for adjacent maps.


METAR-TAF: